Terminal Aerodrome Forecast
Issued by NWS Indianapolis, IN

Home | Current Version | Previous Version | Text Only | Print | Product List | Glossary On
Versions: 1 2 3 4 5 6 7 8 9 10 11 12 13 14 15 16 17 18 19 20 21 22 23 24 25 26 27 28 29 30
000
FTUS43 KIND 281100
TAFIND
TAF
KIND 281136Z 2812/2918 33011KT P6SM OVC020
     FM281500 32014KT P6SM BKN030
     FM282000 33015G25KT P6SM SCT035
     FM290100 33008KT P6SM SKC=

USA.gov is the U.S. government's official web portal to all federal, state and local government web resources and services.